Time;durP1;ratioP1;P1;durP2;ratioP2;P2;SDS_P1;SDS_P2;PMS_P1;PMS_P2;Temp;Humidity;BMP_temperature;BMP_pressure;BME280_temperature;BME280_humidity;BME280_pressure;Samples;Min_cycle;Max_cycle;Signal;HPM_P1;HPM_P2
2022/11/29 00:01:35;;;;;;;;;;;2.00;99.90;;;;;;5048811;28;19962;-81
2022/11/29 00:04:01;;;;;;;;;;;2.00;99.90;;;;;;5030226;28;19916;-80
2022/11/29 00:06:29;;;;;;;;;;;2.00;99.90;;;;;;5032721;28;20430;-81
2022/11/29 00:08:55;;;;;;;;;;;2.00;99.90;;;;;;5047750;28;19965;-81
2022/11/29 00:14:10;;;;;;;;;;;2.00;99.90;;;;;;5063352;28;20436;-81
2022/11/29 00:16:36;;;;;;;;;;;2.00;99.90;;;;;;5060332;28;19908;-80
2022/11/29 00:19:01;;;;;;;;;;;2.00;99.90;;;;;;5054317;28;20330;-80
2022/11/29 00:21:27;;;;;;;;;;;2.00;99.90;;;;;;5036018;28;19913;-81
2022/11/29 00:23:53;;;;;;;;;;;2.00;99.90;;;;;;5049890;28;19919;-81
2022/11/29 00:26:18;;;;;;;;;;;2.00;99.90;;;;;;5053384;28;19913;-83
2022/11/29 00:28:44;;;;;;;;;;;2.00;99.90;;;;;;5045581;28;20301;-81
2022/11/29 00:31:17;;;;;;;;;;;2.00;99.90;;;;;;5043824;28;19920;-81
2022/11/29 00:33:43;;;;;;;;;;;2.00;99.90;;;;;;5073470;28;19917;-81
2022/11/29 00:36:08;;;;;;;;;;;2.00;99.90;;;;;;5034743;28;19920;-80
2022/11/29 00:38:34;;;;;;;;;;;2.00;99.90;;;;;;5064433;28;19976;-80
2022/11/29 00:40:59;;;;;;;;;;;1.90;99.90;;;;;;5055247;28;19917;-81
2022/11/29 00:43:25;;;;;;;;;;;1.90;99.90;;;;;;5064503;28;19916;-80
2022/11/29 00:45:50;;;;;;;;;;;1.90;99.90;;;;;;5023691;28;19912;-80
2022/11/29 00:48:16;;;;;;;;;;;1.90;99.90;;;;;;5023568;28;19919;-81
2022/11/29 00:50:41;;;;;;;;;;;1.90;99.90;;;;;;5040239;28;19979;-80
2022/11/29 00:53:07;;;;;;;;;;;1.90;99.90;;;;;;5020428;28;19920;-81
2022/11/29 00:55:33;;;;;;;;;;;1.90;99.90;;;;;;5041127;28;19920;-81
2022/11/29 00:57:58;;;;;;;;;;;1.90;99.90;;;;;;5047828;28;19912;-83
2022/11/29 01:00:24;;;;;;;;;;;1.90;99.90;;;;;;5028175;28;20308;-81
2022/11/29 01:02:49;;;;;;;;;;;2.00;99.90;;;;;;5032435;28;19936;-80
2022/11/29 01:05:15;;;;;;;;;;;2.00;99.90;;;;;;5031986;28;19913;-81
2022/11/29 01:07:40;;;;;;;;;;;1.90;99.90;;;;;;5023497;28;19970;-81
2022/11/29 01:10:06;;;;;;;;;;;1.90;99.90;;;;;;5022350;28;20008;-81
2022/11/29 01:12:34;;;;;;;;;;;1.90;99.90;;;;;;5023127;28;19924;-81
2022/11/29 01:14:59;;;;;;;;;;;2.00;99.90;;;;;;5039810;28;19991;-80
2022/11/29 01:17:25;;;;;;;;;;;2.00;99.90;;;;;;5039758;28;19952;-81
2022/11/29 01:19:50;;;;;;;;;;;2.00;99.90;;;;;;5042550;28;19913;-82
2022/11/29 01:22:16;;;;;;;;;;;2.00;99.90;;;;;;5028073;28;19919;-81
2022/11/29 01:24:42;;;;;;;;;;;2.00;99.90;;;;;;5049725;28;20333;-81
2022/11/29 01:27:07;;;;;;;;;;;2.00;99.90;;;;;;5036947;28;19948;-80
2022/11/29 01:29:33;;;;;;;;;;;2.00;99.90;;;;;;5050888;28;19935;-82
2022/11/29 01:31:58;;;;;;;;;;;2.00;99.90;;;;;;5050048;28;19912;-81
2022/11/29 01:34:24;;;;;;;;;;;2.00;99.90;;;;;;5021108;28;19924;-81
2022/11/29 01:36:49;;;;;;;;;;;2.00;99.90;;;;;;5021553;28;19917;-82
2022/11/29 01:39:15;;;;;;;;;;;2.00;99.90;;;;;;5037271;28;19963;-82
2022/11/29 01:41:40;;;;;;;;;;;2.00;99.90;;;;;;5037780;28;19931;-82
2022/11/29 01:44:06;;;;;;;;;;;2.00;99.90;;;;;;5037002;28;20015;-81
2022/11/29 01:46:36;;;;;;;;;;;2.00;99.90;;;;;;5037603;28;19916;-81
2022/11/29 01:49:07;;;;;;;;;;;2.00;99.90;;;;;;5057573;28;20055;-84
2022/11/29 01:51:34;;;;;;;;;;;2.00;99.90;;;;;;5048898;28;19935;-82
2022/11/29 01:54:00;;;;;;;;;;;2.00;99.90;;;;;;5053542;28;19909;-81
2022/11/29 01:56:27;;;;;;;;;;;2.00;99.90;;;;;;5019300;28;19936;-81
2022/11/29 01:58:53;;;;;;;;;;;2.00;99.90;;;;;;5053690;28;19935;-81
2022/11/29 02:01:18;;;;;;;;;;;2.00;99.90;;;;;;5019361;28;19913;-81
2022/11/29 02:03:44;;;;;;;;;;;2.00;99.90;;;;;;5019326;28;20327;-81
2022/11/29 02:06:10;;;;;;;;;;;2.00;99.90;;;;;;5015830;28;19917;-82
2022/11/29 02:08:37;;;;;;;;;;;2.00;99.90;;;;;;5025724;28;19921;-81
2022/11/29 02:11:22;;;;;;;;;;;2.00;99.90;;;;;;5055749;28;19965;-81
2022/11/29 02:13:51;;;;;;;;;;;2.00;99.90;;;;;;5060472;28;19908;-81
2022/11/29 02:16:22;;;;;;;;;;;2.00;99.90;;;;;;5039465;28;20455;-81
2022/11/29 02:18:59;;;;;;;;;;;2.00;99.90;;;;;;5039258;28;19916;-81
2022/11/29 02:21:27;;;;;;;;;;;2.00;99.90;;;;;;5041770;28;19909;-82
2022/11/29 02:24:13;;;;;;;;;;;2.00;99.90;;;;;;5057521;28;20422;-81
2022/11/29 02:26:57;;;;;;;;;;;2.00;99.90;;;;;;5019686;28;19911;-82
2022/11/29 02:29:23;;;;;;;;;;;2.00;99.90;;;;;;5019420;28;19913;-81
2022/11/29 02:31:48;;;;;;;;;;;2.00;99.90;;;;;;5019339;28;19913;-81
2022/11/29 02:34:23;;;;;;;;;;;2.00;99.90;;;;;;5019740;28;19909;-82
2022/11/29 02:37:01;;;;;;;;;;;2.00;99.90;;;;;;5019162;28;19909;-82
2022/11/29 02:39:42;;;;;;;;;;;2.00;99.90;;;;;;5019291;28;19909;-82
2022/11/29 02:42:10;;;;;;;;;;;1.90;99.90;;;;;;5026070;28;20331;-82
2022/11/29 02:44:36;;;;;;;;;;;1.90;99.90;;;;;;5039066;28;19909;-81
2022/11/29 02:47:04;;;;;;;;;;;1.90;99.90;;;;;;5039013;28;19970;-81
2022/11/29 02:49:41;;;;;;;;;;;1.90;99.90;;;;;;5037994;28;19945;-81
2022/11/29 02:52:10;;;;;;;;;;;2.00;99.90;;;;;;5019200;28;19913;-81
2022/11/29 02:54:36;;;;;;;;;;;1.90;99.90;;;;;;5019571;28;19909;-82
2022/11/29 02:57:10;;;;;;;;;;;2.00;99.90;;;;;;5020006;28;20000;-81
2022/11/29 02:59:39;;;;;;;;;;;2.00;99.90;;;;;;5042858;28;19954;-82
2022/11/29 03:02:25;;;;;;;;;;;2.00;99.90;;;;;;5026378;28;20451;-82
2022/11/29 03:05:00;;;;;;;;;;;2.00;99.90;;;;;;5019550;28;19979;-81
2022/11/29 03:07:31;;;;;;;;;;;2.00;99.90;;;;;;5028811;28;19979;-82
2022/11/29 03:10:03;;;;;;;;;;;2.00;99.90;;;;;;5069963;28;19916;-81
2022/11/29 03:12:28;;;;;;;;;;;2.00;99.90;;;;;;5064402;28;20016;-82
2022/11/29 03:15:13;;;;;;;;;;;2.00;99.90;;;;;;5021167;28;19952;-81
2022/11/29 03:17:45;;;;;;;;;;;2.00;99.90;;;;;;5041450;28;19960;-80
2022/11/29 03:20:27;;;;;;;;;;;2.00;99.90;;;;;;5062331;28;20106;-81
2022/11/29 03:23:02;;;;;;;;;;;2.00;99.90;;;;;;5052391;28;19912;-81
2022/11/29 03:25:30;;;;;;;;;;;2.00;99.90;;;;;;5054754;28;19915;-81
2022/11/29 03:28:10;;;;;;;;;;;2.00;99.90;;;;;;5054586;28;19909;-82
2022/11/29 03:30:36;;;;;;;;;;;2.00;99.90;;;;;;5054669;28;19909;-81
2022/11/29 03:33:11;;;;;;;;;;;2.00;99.90;;;;;;5054824;28;19948;-81
2022/11/29 03:35:41;;;;;;;;;;;2.00;99.90;;;;;;5054639;28;19908;-81
2022/11/29 03:38:12;;;;;;;;;;;2.00;99.90;;;;;;5047553;28;19909;-81
2022/11/29 03:40:46;;;;;;;;;;;2.10;99.90;;;;;;5046991;28;20016;-81
2022/11/29 03:43:15;;;;;;;;;;;2.00;99.90;;;;;;5065453;28;20265;-81
2022/11/29 03:45:53;;;;;;;;;;;2.10;99.90;;;;;;5057978;28;20288;-82
2022/11/29 03:48:36;;;;;;;;;;;2.10;99.90;;;;;;5057560;28;19909;-82
2022/11/29 03:51:11;;;;;;;;;;;2.10;99.90;;;;;;5071306;28;19913;-82
2022/11/29 03:53:55;;;;;;;;;;;2.00;99.90;;;;;;5042985;28;20427;-82
2022/11/29 03:56:30;;;;;;;;;;;2.10;99.90;;;;;;5037791;28;19931;-82
2022/11/29 03:59:14;;;;;;;;;;;2.10;99.90;;;;;;5036407;28;20436;-82
2022/11/29 04:01:49;;;;;;;;;;;2.10;99.90;;;;;;5047118;28;19915;-82
2022/11/29 04:04:33;;;;;;;;;;;2.10;99.90;;;;;;5049807;28;20050;-81
2022/11/29 04:07:17;;;;;;;;;;;2.10;99.90;;;;;;5037272;28;20466;-82
2022/11/29 04:10:01;;;;;;;;;;;2.10;99.90;;;;;;5039205;28;19943;-83
2022/11/29 04:12:30;;;;;;;;;;;2.10;99.90;;;;;;5037504;28;19995;-81
2022/11/29 04:15:08;;;;;;;;;;;2.00;99.90;;;;;;5041222;28;20003;-81
2022/11/29 04:17:48;;;;;;;;;;;2.10;99.90;;;;;;5062831;28;20011;-81
2022/11/29 04:20:23;;;;;;;;;;;2.10;99.90;;;;;;5064631;28;19914;-81
2022/11/29 04:22:49;;;;;;;;;;;2.10;99.90;;;;;;5044804;28;19914;-81
2022/11/29 04:25:29;;;;;;;;;;;2.10;99.90;;;;;;5057214;28;19915;-82
2022/11/29 04:28:01;;;;;;;;;;;2.10;99.90;;;;;;5077929;28;19931;-83
2022/11/29 04:30:30;;;;;;;;;;;2.10;99.90;;;;;;5057219;28;19952;-82
2022/11/29 04:33:06;;;;;;;;;;;2.10;99.90;;;;;;5057975;28;19916;-82
2022/11/29 04:35:50;;;;;;;;;;;2.10;99.90;;;;;;5056812;28;19909;-83
2022/11/29 04:38:39;;;;;;;;;;;2.10;99.90;;;;;;5057518;28;19934;-83
2022/11/29 04:41:25;;;;;;;;;;;2.10;99.90;;;;;;5075265;28;20269;-83
2022/11/29 04:43:56;;;;;;;;;;;2.10;99.90;;;;;;5022934;28;19935;-83
2022/11/29 04:46:22;;;;;;;;;;;2.10;99.90;;;;;;5038285;28;19932;-83
2022/11/29 04:48:53;;;;;;;;;;;2.10;99.90;;;;;;5046764;28;20418;-83
2022/11/29 04:51:38;;;;;;;;;;;2.10;99.90;;;;;;5040912;28;20369;-82
2022/11/29 04:54:03;;;;;;;;;;;2.10;99.90;;;;;;5039990;28;19913;-83
2022/11/29 04:56:41;;;;;;;;;;;2.10;99.90;;;;;;5029820;28;19910;-83
2022/11/29 04:59:33;;;;;;;;;;;2.10;99.90;;;;;;5052017;28;19976;-82
2022/11/29 05:02:08;;;;;;;;;;;2.10;99.90;;;;;;5037737;28;19915;-82
2022/11/29 05:04:43;;;;;;;;;;;2.10;99.90;;;;;;5037598;28;19908;-83
2022/11/29 05:07:18;;;;;;;;;;;2.10;99.90;;;;;;5037397;28;19909;-82
2022/11/29 05:10:02;;;;;;;;;;;2.10;99.90;;;;;;5040582;28;19917;-81
2022/11/29 05:12:32;;;;;;;;;;;2.10;99.90;;;;;;5061419;28;21128;-82
2022/11/29 05:15:01;;;;;;;;;;;2.10;99.90;;;;;;5063626;28;20376;-81
2022/11/29 05:17:34;;;;;;;;;;;2.10;99.90;;;;;;5043687;28;19952;-82
2022/11/29 05:20:12;;;;;;;;;;;2.10;99.90;;;;;;5042252;28;20283;-82
2022/11/29 05:22:56;;;;;;;;;;;2.10;99.90;;;;;;5047780;28;19995;-83
2022/11/29 05:25:24;;;;;;;;;;;2.10;99.90;;;;;;5065982;28;19937;-82
2022/11/29 05:27:56;;;;;;;;;;;2.10;99.90;;;;;;5037388;28;19909;-82
2022/11/29 05:30:23;;;;;;;;;;;2.10;99.90;;;;;;5037739;28;19908;-82
2022/11/29 05:32:56;;;;;;;;;;;2.10;99.90;;;;;;5037369;28;19920;-82
2022/11/29 05:35:25;;;;;;;;;;;2.10;99.90;;;;;;5037943;28;19916;-82
2022/11/29 05:37:52;;;;;;;;;;;2.10;99.90;;;;;;5062471;28;19941;-83
2022/11/29 05:40:36;;;;;;;;;;;2.10;99.90;;;;;;5037343;28;19974;-83
2022/11/29 05:43:05;;;;;;;;;;;2.10;99.90;;;;;;5037479;28;19908;-84
2022/11/29 05:45:30;;;;;;;;;;;2.10;99.90;;;;;;5037447;28;20007;-83
2022/11/29 05:48:15;;;;;;;;;;;2.10;99.90;;;;;;5043935;28;19909;-83
2022/11/29 05:50:55;;;;;;;;;;;2.10;99.90;;;;;;5061076;28;20284;-83
2022/11/29 05:53:33;;;;;;;;;;;2.10;99.90;;;;;;5055225;28;19909;-82
2022/11/29 05:56:05;;;;;;;;;;;2.10;99.90;;;;;;5038373;28;19909;-81
2022/11/29 05:58:49;;;;;;;;;;;2.10;99.90;;;;;;5040219;28;20320;-82
2022/11/29 06:01:14;;;;;;;;;;;2.10;99.90;;;;;;5021497;28;20011;-81
2022/11/29 06:03:45;;;;;;;;;;;2.10;99.90;;;;;;5020906;28;19916;-83
2022/11/29 06:06:18;;;;;;;;;;;2.10;99.90;;;;;;5038568;28;20054;-82
2022/11/29 06:08:47;;;;;;;;;;;2.10;99.90;;;;;;5038348;28;19921;-82
2022/11/29 06:11:12;;;;;;;;;;;2.10;99.90;;;;;;5021020;28;19913;-82
2022/11/29 06:13:48;;;;;;;;;;;2.10;99.90;;;;;;5040711;28;20328;-83
2022/11/29 06:16:28;;;;;;;;;;;2.10;99.90;;;;;;5055570;28;19912;-83
2022/11/29 06:19:12;;;;;;;;;;;2.10;99.90;;;;;;5063302;28;19976;-82
2022/11/29 06:21:39;;;;;;;;;;;2.10;99.90;;;;;;5052962;28;19956;-81
2022/11/29 06:24:13;;;;;;;;;;;2.10;99.90;;;;;;5048462;28;19915;-82
2022/11/29 06:26:54;;;;;;;;;;;2.10;99.90;;;;;;5046637;28;20057;-82
2022/11/29 06:29:22;;;;;;;;;;;2.10;99.90;;;;;;5061788;28;19916;-82
2022/11/29 06:31:58;;;;;;;;;;;2.10;99.90;;;;;;5066258;28;19913;-82
2022/11/29 06:34:30;;;;;;;;;;;2.10;99.90;;;;;;5045425;28;20002;-82
2022/11/29 06:37:01;;;;;;;;;;;2.10;99.90;;;;;;5064582;28;20054;-82
2022/11/29 06:39:27;;;;;;;;;;;2.00;99.90;;;;;;5041702;28;20040;-82
2022/11/29 06:41:52;;;;;;;;;;;2.00;99.90;;;;;;5050172;28;20412;-82
2022/11/29 06:44:18;;;;;;;;;;;2.00;99.90;;;;;;5029900;28;20312;-82
2022/11/29 06:46:44;;;;;;;;;;;2.10;99.90;;;;;;5065109;28;19908;-82
2022/11/29 06:49:22;;;;;;;;;;;2.00;99.90;;;;;;5050599;28;19912;-81
2022/11/29 06:51:54;;;;;;;;;;;2.10;99.90;;;;;;5039029;28;19912;-82
2022/11/29 06:54:19;;;;;;;;;;;2.00;99.90;;;;;;5039115;28;19909;-82
2022/11/29 06:56:48;;;;;;;;;;;2.10;99.90;;;;;;5039232;28;19909;-82
2022/11/29 06:59:32;;;;;;;;;;;2.10;99.90;;;;;;5056512;28;19913;-82
2022/11/29 07:02:16;;;;;;;;;;;2.00;99.90;;;;;;5039267;28;19908;-83
2022/11/29 07:05:00;;;;;;;;;;;2.10;99.90;;;;;;5039174;28;19931;-82
2022/11/29 07:07:26;;;;;;;;;;;2.00;99.90;;;;;;5056859;28;21121;-82
2022/11/29 07:09:57;;;;;;;;;;;2.00;99.90;;;;;;5057035;28;19959;-82
2022/11/29 07:12:23;;;;;;;;;;;2.00;99.90;;;;;;5039247;28;19916;-82
2022/11/29 07:14:48;;;;;;;;;;;2.00;99.90;;;;;;5039135;28;19920;-82
2022/11/29 07:17:14;;;;;;;;;;;2.00;99.90;;;;;;5038765;28;19909;-82
2022/11/29 07:19:46;;;;;;;;;;;2.00;99.90;;;;;;5039151;28;19917;-82
2022/11/29 07:22:11;;;;;;;;;;;2.00;99.90;;;;;;5026792;28;19909;-82
2022/11/29 07:24:37;;;;;;;;;;;2.00;99.90;;;;;;5047187;28;19909;-81
2022/11/29 07:27:11;;;;;;;;;;;2.00;99.90;;;;;;5066863;28;19916;-82
2022/11/29 07:29:57;;;;;;;;;;;2.00;99.90;;;;;;5052480;28;19951;-83
2022/11/29 07:32:42;;;;;;;;;;;2.00;99.90;;;;;;5047415;28;20400;-81
2022/11/29 07:35:13;;;;;;;;;;;2.00;99.90;;;;;;5058910;28;19908;-82
2022/11/29 07:38:03;;;;;;;;;;;2.00;99.90;;;;;;5075770;28;20364;-82
2022/11/29 07:40:31;;;;;;;;;;;2.00;99.90;;;;;;5048968;28;19923;-82
2022/11/29 07:43:06;;;;;;;;;;;2.00;99.90;;;;;;5050497;28;19956;-82
2022/11/29 07:45:35;;;;;;;;;;;2.00;99.90;;;;;;5061138;28;19908;-83
2022/11/29 07:48:01;;;;;;;;;;;2.00;99.90;;;;;;5034276;28;20285;-83
2022/11/29 07:50:27;;;;;;;;;;;2.00;99.90;;;;;;5001931;28;19913;-83
2022/11/29 07:52:53;;;;;;;;;;;2.00;99.90;;;;;;5053473;28;19975;-84
2022/11/29 07:55:20;;;;;;;;;;;2.00;99.90;;;;;;5037546;28;20343;-84
2022/11/29 07:57:46;;;;;;;;;;;2.00;99.90;;;;;;5037381;28;19913;-84
2022/11/29 08:00:11;;;;;;;;;;;2.00;99.90;;;;;;5037055;28;19920;-84
2022/11/29 08:02:38;;;;;;;;;;;2.00;99.90;;;;;;5055126;28;20273;-82
2022/11/29 08:05:03;;;;;;;;;;;2.00;99.90;;;;;;5037491;28;19913;-82
2022/11/29 08:07:29;;;;;;;;;;;2.00;99.90;;;;;;5055277;28;20411;-82
2022/11/29 08:09:55;;;;;;;;;;;2.00;99.90;;;;;;5037229;28;19913;-83
2022/11/29 08:12:20;;;;;;;;;;;2.00;99.90;;;;;;5037230;28;19913;-83
2022/11/29 08:14:46;;;;;;;;;;;2.00;99.90;;;;;;5043089;28;19919;-82
2022/11/29 08:17:11;;;;;;;;;;;2.00;99.90;;;;;;5060655;28;19916;-82
2022/11/29 08:19:37;;;;;;;;;;;2.00;99.90;;;;;;5048640;28;19948;-83
2022/11/29 08:22:02;;;;;;;;;;;2.00;99.90;;;;;;5037361;28;20312;-82
2022/11/29 08:24:28;;;;;;;;;;;2.00;99.90;;;;;;5036944;28;20274;-82
2022/11/29 08:26:54;;;;;;;;;;;2.10;99.90;;;;;;5020443;28;19920;-81
2022/11/29 08:29:19;;;;;;;;;;;2.10;99.90;;;;;;5036663;28;20300;-83
2022/11/29 08:31:45;;;;;;;;;;;2.10;99.90;;;;;;5036559;28;19917;-82
2022/11/29 08:34:11;;;;;;;;;;;2.10;99.90;;;;;;5036835;28;19913;-82
2022/11/29 08:36:36;;;;;;;;;;;2.10;99.90;;;;;;5054958;28;19909;-82
2022/11/29 08:39:03;;;;;;;;;;;2.10;99.90;;;;;;5036526;28;19916;-85
2022/11/29 08:41:29;;;;;;;;;;;2.10;99.90;;;;;;5021548;28;19961;-84
2022/11/29 08:43:54;;;;;;;;;;;2.10;99.90;;;;;;5036628;28;19994;-84
2022/11/29 08:46:20;;;;;;;;;;;2.10;99.90;;;;;;5036211;28;19917;-84
2022/11/29 08:48:46;;;;;;;;;;;2.10;99.90;;;;;;5035549;28;19913;-84
2022/11/29 08:51:12;;;;;;;;;;;2.10;99.90;;;;;;5040966;28;19916;-83
2022/11/29 08:53:40;;;;;;;;;;;2.20;99.90;;;;;;5045596;28;19909;-82
2022/11/29 08:56:10;;;;;;;;;;;2.20;99.90;;;;;;5045480;28;19944;-83
2022/11/29 08:58:36;;;;;;;;;;;2.20;99.90;;;;;;5043584;28;19996;-82
2022/11/29 09:01:02;;;;;;;;;;;2.20;99.90;;;;;;5036419;28;19947;-83
2022/11/29 09:06:13;;;;;;;;;;;2.30;99.90;;;;;;5065885;28;19950;-82
2022/11/29 09:08:42;;;;;;;;;;;2.30;99.90;;;;;;5039966;28;19917;-82
2022/11/29 09:11:12;;;;;;;;;;;2.30;99.90;;;;;;5056304;28;20380;-83
2022/11/29 09:13:42;;;;;;;;;;;2.30;99.90;;;;;;5041894;28;20369;-83
2022/11/29 09:16:09;;;;;;;;;;;2.40;99.90;;;;;;5036217;28;19939;-84
2022/11/29 09:18:35;;;;;;;;;;;2.40;99.90;;;;;;5036118;28;19909;-84
2022/11/29 09:21:03;;;;;;;;;;;2.40;99.90;;;;;;5051350;28;19932;-83
2022/11/29 09:23:29;;;;;;;;;;;2.40;99.90;;;;;;5016586;28;20014;-83
2022/11/29 09:25:55;;;;;;;;;;;2.50;99.90;;;;;;5044646;28;19912;-82
2022/11/29 09:28:20;;;;;;;;;;;2.50;99.90;;;;;;5038417;28;19913;-83
2022/11/29 09:30:46;;;;;;;;;;;2.50;99.90;;;;;;5030063;28;19976;-83
2022/11/29 09:33:11;;;;;;;;;;;2.50;99.90;;;;;;5035853;28;19972;-83
2022/11/29 09:35:37;;;;;;;;;;;2.50;99.90;;;;;;5036157;28;19913;-83
2022/11/29 09:38:03;;;;;;;;;;;2.50;99.90;;;;;;5032897;28;20377;-83
2022/11/29 09:40:37;;;;;;;;;;;2.60;99.90;;;;;;5039446;28;20273;-82
2022/11/29 09:43:23;;;;;;;;;;;2.60;99.90;;;;;;5035787;28;20405;-82
2022/11/29 09:45:53;;;;;;;;;;;2.60;99.90;;;;;;5034804;28;20319;-82
2022/11/29 09:48:35;;;;;;;;;;;2.70;99.90;;;;;;5035574;28;20365;-82
2022/11/29 09:51:03;;;;;;;;;;;2.70;99.90;;;;;;5053790;28;20357;-82
2022/11/29 09:53:42;;;;;;;;;;;2.70;99.90;;;;;;5035547;28;19908;-82
2022/11/29 09:56:24;;;;;;;;;;;2.70;99.90;;;;;;5042826;28;20341;-82
2022/11/29 09:58:57;;;;;;;;;;;2.80;99.90;;;;;;5063240;28;19909;-81
2022/11/29 10:01:29;;;;;;;;;;;2.80;99.90;;;;;;5053308;28;19916;-82
2022/11/29 10:03:58;;;;;;;;;;;2.80;99.90;;;;;;5035525;28;19951;-82
2022/11/29 10:06:31;;;;;;;;;;;2.80;99.90;;;;;;5035600;28;19909;-83
2022/11/29 10:09:01;;;;;;;;;;;2.90;99.90;;;;;;5035379;28;20020;-81
2022/11/29 10:11:29;;;;;;;;;;;2.90;99.90;;;;;;5053409;28;19913;-82
2022/11/29 10:14:04;;;;;;;;;;;2.90;99.90;;;;;;5035460;28;19999;-82
2022/11/29 10:16:30;;;;;;;;;;;3.00;99.90;;;;;;5035499;28;19909;-82
2022/11/29 10:19:14;;;;;;;;;;;3.00;99.90;;;;;;5053501;28;20254;-83
2022/11/29 10:21:42;;;;;;;;;;;3.10;99.90;;;;;;5040042;28;19915;-84
2022/11/29 10:24:10;;;;;;;;;;;3.10;99.90;;;;;;5052445;28;20348;-84
2022/11/29 10:26:36;;;;;;;;;;;3.20;99.90;;;;;;5052997;28;19909;-81
2022/11/29 10:29:01;;;;;;;;;;;3.30;99.90;;;;;;5053482;28;19927;-82
2022/11/29 10:31:41;;;;;;;;;;;3.30;99.90;;;;;;5054031;28;19913;-82
2022/11/29 10:34:14;;;;;;;;;;;3.30;99.90;;;;;;5055393;28;19913;-82
2022/11/29 10:37:00;;;;;;;;;;;3.30;99.90;;;;;;5056419;28;19936;-83
2022/11/29 10:39:43;;;;;;;;;;;3.40;99.90;;;;;;5057399;28;20280;-81
2022/11/29 10:42:47;;;;;;;;;;;3.40;99.90;;;;;;5057059;28;19955;-81
2022/11/29 10:45:00;;;;;;;;;;;3.40;99.90;;;;;;5056517;28;19997;-83
2022/11/29 10:47:26;;;;;;;;;;;3.40;99.90;;;;;;5038710;28;19917;-82
2022/11/29 10:49:51;;;;;;;;;;;3.50;99.90;;;;;;5030739;28;19924;-82
2022/11/29 10:52:19;;;;;;;;;;;3.50;99.90;;;;;;5033275;28;19924;-81
2022/11/29 10:54:45;;;;;;;;;;;3.40;99.90;;;;;;5039426;28;19916;-82
2022/11/29 10:57:15;;;;;;;;;;;3.50;99.90;;;;;;5064591;28;19915;-82
2022/11/29 10:59:56;;;;;;;;;;;3.40;99.90;;;;;;5045572;28;19909;-83
2022/11/29 11:02:23;;;;;;;;;;;3.50;99.90;;;;;;5055841;28;20361;-82
2022/11/29 11:04:48;;;;;;;;;;;3.40;99.90;;;;;;5048077;28;19912;-82
2022/11/29 11:07:40;;;;;;;;;;;3.50;99.90;;;;;;5045537;28;19970;-81
2022/11/29 11:10:26;;;;;;;;;;;3.50;99.90;;;;;;5064852;28;19924;-81
2022/11/29 11:13:09;;;;;;;;;;;3.50;99.90;;;;;;5038264;28;20467;-82
2022/11/29 11:15:35;;;;;;;;;;;3.50;99.90;;;;;;5056363;28;20438;-81
2022/11/29 11:18:03;;;;;;;;;;;3.50;99.90;;;;;;5056257;28;19919;-81
2022/11/29 11:20:34;;;;;;;;;;;3.60;99.90;;;;;;5056504;28;20323;-82
2022/11/29 11:23:01;;;;;;;;;;;3.50;99.90;;;;;;5038669;28;19908;-81
2022/11/29 11:25:33;;;;;;;;;;;3.60;99.90;;;;;;5038117;28;19916;-82
2022/11/29 11:28:11;;;;;;;;;;;3.60;99.90;;;;;;5056200;28;20369;-82
2022/11/29 11:30:36;;;;;;;;;;;3.70;99.90;;;;;;5056122;28;19909;-83
2022/11/29 11:33:28;;;;;;;;;;;3.70;99.90;;;;;;5021651;28;19924;-82
2022/11/29 11:36:06;;;;;;;;;;;3.70;99.90;;;;;;5053768;28;19908;-83
2022/11/29 11:38:33;;;;;;;;;;;3.80;99.90;;;;;;5038072;28;19940;-81
2022/11/29 11:41:15;;;;;;;;;;;3.80;99.90;;;;;;5055853;28;20428;-82
2022/11/29 11:43:41;;;;;;;;;;;3.80;99.90;;;;;;5038449;28;19908;-81
2022/11/29 11:46:07;;;;;;;;;;;3.90;99.90;;;;;;5037557;28;19908;-81
2022/11/29 11:48:32;;;;;;;;;;;3.80;99.90;;;;;;5038558;28;19923;-81
2022/11/29 11:50:59;;;;;;;;;;;3.90;99.90;;;;;;5055634;28;19924;-82
2022/11/29 11:53:24;;;;;;;;;;;3.90;99.90;;;;;;5056805;28;20289;-81
2022/11/29 11:56:01;;;;;;;;;;;3.90;99.90;;;;;;5056067;28;19909;-81
2022/11/29 11:58:37;;;;;;;;;;;3.90;99.90;;;;;;5054680;28;19909;-81
2022/11/29 12:01:11;;;;;;;;;;;3.90;99.90;;;;;;5055716;28;19912;-82
2022/11/29 12:03:40;;;;;;;;;;;3.90;99.90;;;;;;5056346;28;19909;-82
2022/11/29 12:06:05;;;;;;;;;;;4.00;99.90;;;;;;5058112;28;20016;-81
2022/11/29 12:08:31;;;;;;;;;;;4.00;99.90;;;;;;5048255;28;20389;-81
2022/11/29 12:11:00;;;;;;;;;;;4.00;99.90;;;;;;5049432;28;20010;-81
2022/11/29 12:13:29;;;;;;;;;;;4.00;99.90;;;;;;5062399;28;19909;-82
2022/11/29 12:15:55;;;;;;;;;;;4.00;99.90;;;;;;5067080;28;19908;-81
2022/11/29 12:18:39;;;;;;;;;;;4.00;99.90;;;;;;5028915;28;20419;-81
2022/11/29 12:21:16;;;;;;;;;;;4.00;99.90;;;;;;5048616;28;20392;-81
2022/11/29 12:23:48;;;;;;;;;;;4.00;99.90;;;;;;5053760;28;19995;-81
2022/11/29 12:26:25;;;;;;;;;;;4.00;99.90;;;;;;5054917;28;19944;-82
2022/11/29 12:28:51;;;;;;;;;;;4.00;99.90;;;;;;5055219;28;19916;-81
2022/11/29 12:31:22;;;;;;;;;;;4.00;99.90;;;;;;5036911;28;19975;-82
2022/11/29 12:33:51;;;;;;;;;;;4.10;99.90;;;;;;5054801;28;20334;-81
2022/11/29 12:36:23;;;;;;;;;;;4.00;99.90;;;;;;5055157;28;20027;-82
2022/11/29 12:39:01;;;;;;;;;;;4.00;99.90;;;;;;5053536;28;20258;-81
2022/11/29 12:41:32;;;;;;;;;;;4.00;99.90;;;;;;5054984;28;20353;-80
2022/11/29 12:43:58;;;;;;;;;;;4.10;99.90;;;;;;5054494;28;19909;-82
2022/11/29 12:46:28;;;;;;;;;;;4.00;99.90;;;;;;5036748;28;19909;-83
2022/11/29 12:49:12;;;;;;;;;;;4.00;99.90;;;;;;5055061;28;20055;-82
2022/11/29 12:51:56;;;;;;;;;;;4.00;99.90;;;;;;5054291;28;19920;-81
2022/11/29 12:54:40;;;;;;;;;;;4.00;99.90;;;;;;5046915;28;19909;-81
2022/11/29 12:57:09;;;;;;;;;;;4.00;99.90;;;;;;5043777;28;19909;-81
2022/11/29 12:59:38;;;;;;;;;;;4.00;99.90;;;;;;5040458;28;19909;-81
2022/11/29 13:02:16;;;;;;;;;;;4.10;99.90;;;;;;5070647;28;19913;-81
2022/11/29 13:04:41;;;;;;;;;;;4.00;99.90;;;;;;5065591;28;19913;-82
2022/11/29 13:07:13;;;;;;;;;;;4.10;99.90;;;;;;5074222;28;20365;-82
2022/11/29 13:09:47;;;;;;;;;;;4.00;99.90;;;;;;5056464;28;20280;-83
2022/11/29 13:12:25;;;;;;;;;;;4.10;99.90;;;;;;5071725;28;19916;-82
2022/11/29 13:15:09;;;;;;;;;;;4.10;99.90;;;;;;5036494;28;19916;-81
2022/11/29 13:17:47;;;;;;;;;;;4.10;99.90;;;;;;5055282;28;19909;-82
2022/11/29 13:20:35;;;;;;;;;;;4.10;99.90;;;;;;5036886;28;19916;-82
2022/11/29 13:23:01;;;;;;;;;;;4.10;99.90;;;;;;5051659;28;20046;-82
2022/11/29 13:25:33;;;;;;;;;;;4.10;99.90;;;;;;5053074;28;20372;-83
2022/11/29 13:28:02;;;;;;;;;;;4.10;99.90;;;;;;5052864;28;20011;-82
2022/11/29 13:30:27;;;;;;;;;;;4.10;99.90;;;;;;5054160;28;19909;-81
2022/11/29 13:32:53;;;;;;;;;;;4.10;99.90;;;;;;5052799;28;20399;-80
2022/11/29 13:35:40;;;;;;;;;;;4.20;99.90;;;;;;5054190;28;19995;-81
2022/11/29 13:38:25;;;;;;;;;;;4.10;99.90;;;;;;5061618;28;19915;-81
2022/11/29 13:40:51;;;;;;;;;;;4.20;99.90;;;;;;5049177;28;20343;-81
2022/11/29 13:43:46;;;;;;;;;;;4.20;99.90;;;;;;5054423;28;19951;-81
2022/11/29 13:46:25;;;;;;;;;;;4.20;99.90;;;;;;5044519;28;19959;-81
2022/11/29 13:48:52;;;;;;;;;;;4.20;99.90;;;;;;5054328;28;19911;-81
2022/11/29 13:51:28;;;;;;;;;;;4.20;99.90;;;;;;5049979;28;19913;-81
2022/11/29 13:53:54;;;;;;;;;;;4.20;99.90;;;;;;5033568;28;19940;-81
2022/11/29 13:56:30;;;;;;;;;;;4.20;99.90;;;;;;5041841;28;19952;-80
2022/11/29 13:58:59;;;;;;;;;;;4.20;99.90;;;;;;5044613;28;19922;-81
2022/11/29 14:01:25;;;;;;;;;;;4.20;99.90;;;;;;5073417;28;20261;-81
2022/11/29 14:04:12;;;;;;;;;;;4.20;99.90;;;;;;5038880;28;19916;-81
2022/11/29 14:06:37;;;;;;;;;;;4.30;99.90;;;;;;5073414;28;19917;-80
2022/11/29 14:09:23;;;;;;;;;;;4.30;99.90;;;;;;5076217;28;19924;-81
2022/11/29 14:11:49;;;;;;;;;;;4.30;99.90;;;;;;5059292;28;20318;-81
2022/11/29 14:14:21;;;;;;;;;;;4.30;99.90;;;;;;5039505;28;19908;-81
2022/11/29 14:16:46;;;;;;;;;;;4.30;99.90;;;;;;5056724;28;19909;-81
2022/11/29 14:19:23;;;;;;;;;;;4.30;99.90;;;;;;5039170;28;20262;-80
2022/11/29 14:21:55;;;;;;;;;;;4.30;99.90;;;;;;5048184;28;19999;-80
2022/11/29 14:24:36;;;;;;;;;;;4.30;99.90;;;;;;5046304;28;19909;-80
2022/11/29 14:27:13;;;;;;;;;;;4.30;99.90;;;;;;5056958;28;19909;-81
2022/11/29 14:29:48;;;;;;;;;;;4.30;99.90;;;;;;5056992;28;19908;-81
2022/11/29 14:32:21;;;;;;;;;;;4.30;99.90;;;;;;5038712;28;19935;-81
2022/11/29 14:34:51;;;;;;;;;;;4.20;99.90;;;;;;5039122;28;19909;-81
2022/11/29 14:37:22;;;;;;;;;;;4.20;99.90;;;;;;5038826;28;19931;-80
2022/11/29 14:39:50;;;;;;;;;;;4.10;99.90;;;;;;5040189;28;20000;-81
2022/11/29 14:42:17;;;;;;;;;;;4.10;99.90;;;;;;5038970;28;19962;-81
2022/11/29 14:44:45;;;;;;;;;;;4.10;99.90;;;;;;5062111;28;19912;-81
2022/11/29 14:47:22;;;;;;;;;;;4.00;99.90;;;;;;5042842;28;19956;-81
2022/11/29 14:49:49;;;;;;;;;;;4.00;99.90;;;;;;5061175;28;20004;-81
2022/11/29 14:52:25;;;;;;;;;;;4.00;99.90;;;;;;5044853;28;19959;-80
2022/11/29 14:55:02;;;;;;;;;;;3.90;99.90;;;;;;5061416;28;19958;-82
2022/11/29 14:57:45;;;;;;;;;;;3.90;99.90;;;;;;5056711;28;19948;-81
2022/11/29 15:00:13;;;;;;;;;;;3.80;99.90;;;;;;5039131;28;19909;-81
2022/11/29 15:02:41;;;;;;;;;;;3.80;99.90;;;;;;5038219;28;19909;-81